logo dgac
Miércoles 10 de Agosto del 2022
Buscar por aerodromo o helipuerto
Ingrese nombre de aeródromo, localidad o designador OACI:
TAF: TAF SCDA 101651Z 1018/1118 27008KT 9999 BKN025 TX17/1018Z TN14/1110Z BECMG 1020/1022 24008KT BECMG 1022/1100 OVC020 BECMG 1101/1103 34004KT BECMG 1116/1118 27008KT BKN025
TAF del 10/08/2022 a las 16:51 UTC
Para mayor información visite www.meteochile.cl
Período de validez: desde el 10 a las 18:00 UTC hasta el 11 a las 18:00 UTC
Viento: dirección 270 grados, velocidad 8 nudos
Visibilidad: 10 km o más
Nubes: Nublado a 2500 pies sobre el nivel del aeródromo
Temperatura máxima: 17ºC el 10 a las 18:00 UTC
Temperatura mínima: 14ºC el 11 a las 10:00 UTC
Se espera un cambio entre las 20:00 UTC del 10 y las 22:00 UTC del 10, :
Viento: dirección 240 grados, velocidad 8 nudos
Se espera un cambio entre las 22:00 UTC del 10 y las 00:00 UTC del 11, :
Nubes: Cubierto a 2000 pies sobre el nivel del aeródromo
Se espera un cambio entre las 01:00 UTC del 11 y las 03:00 UTC del 11, :
Viento: dirección 340 grados, velocidad 4 nudos
Se espera un cambio entre las 16:00 UTC del 11 y las 18:00 UTC del 11, :
Viento: dirección 270 grados, velocidad 8 nudos
Nubes: Nublado a 2500 pies sobre el nivel del aeródromo